Time;durP1;ratioP1;P1;durP2;ratioP2;P2;SDS_P1;SDS_P2;PMS_P1;PMS_P2;Temp;Humidity;BMP_temperature;BMP_pressure;BME280_temperature;BME280_humidity;BME280_pressure;Samples;Min_cycle;Max_cycle;Signal;HPM_P1;HPM_P2
2022/05/19 00:01:17;;;;;;;14.75;10.43;;;16.90;99.90;;;;;;4978371;28;20046;-65
2022/05/19 00:03:43;;;;;;;16.05;11.50;;;16.90;99.90;;;;;;4995973;28;20046;-65
2022/05/19 00:06:10;;;;;;;14.57;11.40;;;16.90;99.90;;;;;;4997142;28;20050;-66
2022/05/19 00:08:36;;;;;;;14.57;11.70;;;16.90;99.90;;;;;;4996598;28;20072;-64
2022/05/19 00:11:06;;;;;;;19.42;12.52;;;16.90;99.90;;;;;;4995325;28;20408;-65
2022/05/19 00:13:33;;;;;;;17.67;13.63;;;16.90;99.90;;;;;;5011483;28;20074;-65
2022/05/19 00:15:58;;;;;;;14.73;12.80;;;16.90;99.90;;;;;;4992023;28;20054;-64
2022/05/19 00:18:25;;;;;;;15.73;11.77;;;16.90;99.90;;;;;;4995801;28;20085;-65
2022/05/19 00:20:51;;;;;;;12.55;11.23;;;16.90;99.90;;;;;;4995628;28;20046;-65
2022/05/19 00:23:17;;;;;;;13.70;12.30;;;16.80;99.90;;;;;;4995927;28;20037;-64
2022/05/19 00:25:43;;;;;;;19.85;13.30;;;16.90;99.90;;;;;;4994778;28;20515;-64
2022/05/19 00:28:09;;;;;;;15.65;13.35;;;16.80;99.90;;;;;;4980564;28;20030;-64
2022/05/19 00:30:36;;;;;;;17.35;14.13;;;16.80;99.90;;;;;;4994939;28;20060;-64
2022/05/19 00:33:03;;;;;;;16.10;13.95;;;16.80;99.90;;;;;;4994503;28;20077;-65
2022/05/19 00:35:28;;;;;;;18.45;14.40;;;16.70;99.90;;;;;;4994525;28;20701;-65
2022/05/19 00:37:54;;;;;;;18.67;13.38;;;16.60;99.90;;;;;;4994732;28;20038;-65
2022/05/19 00:40:22;;;;;;;21.00;13.18;;;16.60;99.90;;;;;;4993966;28;20046;-64
2022/05/19 00:42:47;;;;;;;19.70;14.40;;;16.60;99.90;;;;;;4991952;28;20045;-64
2022/05/19 00:45:16;;;;;;;17.48;13.73;;;16.60;99.90;;;;;;4991431;28;20038;-64
2022/05/19 00:47:57;;;;;;;18.95;14.13;;;16.60;99.90;;;;;;4992112;28;20042;-64
2022/05/19 00:50:41;;;;;;;22.40;14.32;;;16.50;99.90;;;;;;4994637;28;20045;-65
2022/05/19 00:53:12;;;;;;;21.65;14.73;;;16.50;99.90;;;;;;4978009;28;20049;-65
2022/05/19 00:55:44;;;;;;;19.77;15.75;;;16.50;99.90;;;;;;4997313;28;20046;-65
2022/05/19 00:58:27;;;;;;;24.08;15.15;;;16.40;99.90;;;;;;4992180;28;20046;-65
2022/05/19 01:00:54;;;;;;;20.30;16.60;;;16.40;99.90;;;;;;4992137;28;20044;-64
2022/05/19 01:03:22;;;;;;;23.63;15.60;;;16.40;99.90;;;;;;4992105;28;20042;-64
2022/05/19 01:06:13;;;;;;;22.90;16.02;;;16.30;99.90;;;;;;4991790;28;20037;-64
2022/05/19 01:08:47;;;;;;;19.08;15.18;;;16.20;99.90;;;;;;4993739;28;20044;-64
2022/05/19 01:11:15;;;;;;;20.27;16.45;;;16.20;99.90;;;;;;5010151;28;20050;-64
2022/05/19 01:13:42;;;;;;;18.33;15.45;;;16.20;99.90;;;;;;4994120;28;20394;-64
2022/05/19 01:16:09;;;;;;;21.90;16.17;;;16.10;99.90;;;;;;4994251;28;20046;-64
2022/05/19 01:18:37;;;;;;;25.75;18.05;;;16.10;99.90;;;;;;4992261;28;20060;-64
2022/05/19 01:21:06;;;;;;;23.25;17.55;;;16.10;99.90;;;;;;5011388;28;20060;-64
2022/05/19 01:23:48;;;;;;;23.42;16.80;;;16.10;99.90;;;;;;4993147;28;20045;-64
2022/05/19 01:26:22;;;;;;;24.33;17.42;;;16.10;99.90;;;;;;4993614;28;20050;-64
2022/05/19 01:28:48;;;;;;;23.52;18.10;;;16.00;99.90;;;;;;4994660;28;20675;-64
2022/05/19 01:31:52;;;;;;;24.27;17.48;;;16.10;99.90;;;;;;4992122;28;20048;-64
2022/05/19 01:34:22;;;;;;;26.10;17.70;;;16.10;99.90;;;;;;4936304;28;20101;-64
2022/05/19 01:36:49;;;;;;;23.15;18.23;;;16.00;99.90;;;;;;4953093;28;20054;-64
2022/05/19 01:39:17;;;;;;;23.58;18.45;;;16.10;99.90;;;;;;4972625;28;20060;-64
2022/05/19 01:42:12;;;;;;;24.65;18.00;;;16.10;99.90;;;;;;4993586;28;20038;-64
2022/05/19 01:44:59;;;;;;;29.77;20.63;;;16.10;99.90;;;;;;4993149;28;20054;-64
2022/05/19 01:47:34;;;;;;;24.35;19.35;;;16.10;99.90;;;;;;4992304;28;20136;-64
2022/05/19 01:50:32;;;;;;;25.25;19.15;;;16.10;99.90;;;;;;4990410;28;20050;-64
2022/05/19 01:53:13;;;;;;;24.92;20.20;;;16.10;99.90;;;;;;4992438;28;20047;-64
2022/05/19 01:56:03;;;;;;;28.50;20.98;;;16.10;99.90;;;;;;4995889;28;20080;-64
2022/05/19 01:58:36;;;;;;;28.40;21.80;;;16.10;99.90;;;;;;4993896;28;20050;-64
2022/05/19 02:01:05;;;;;;;27.02;23.27;;;16.10;99.90;;;;;;5007494;28;20772;-65
2022/05/19 02:03:48;;;;;;;32.22;24.20;;;16.10;99.90;;;;;;4992769;28;20173;-64
2022/05/19 02:06:21;;;;;;;37.03;24.88;;;16.00;99.90;;;;;;4990589;28;20038;-64
2022/05/19 02:09:10;;;;;;;33.53;25.42;;;16.00;99.90;;;;;;4990331;28;20034;-65
2022/05/19 02:11:43;;;;;;;31.25;25.65;;;16.10;99.90;;;;;;4992025;28;20045;-64
2022/05/19 02:14:14;;;;;;;32.50;25.75;;;16.10;99.90;;;;;;4996011;28;20134;-65
2022/05/19 02:16:42;;;;;;;33.00;26.92;;;16.00;99.90;;;;;;4993815;28;20053;-65
2022/05/19 02:19:10;;;;;;;32.33;26.73;;;16.00;99.90;;;;;;4993114;28;20050;-64
2022/05/19 02:21:36;;;;;;;33.72;28.30;;;16.00;99.90;;;;;;4994382;28;20385;-64
2022/05/19 02:24:02;;;;;;;35.53;28.83;;;16.00;99.90;;;;;;4992937;28;20049;-64
2022/05/19 02:26:33;;;;;;;34.40;30.75;;;16.00;99.90;;;;;;4993352;28;20046;-65
2022/05/19 02:29:06;;;;;;;40.58;31.45;;;16.00;99.90;;;;;;4990854;28;20060;-64
2022/05/19 02:31:32;;;;;;;38.65;32.47;;;16.10;99.90;;;;;;4993231;28;20054;-64
2022/05/19 02:33:58;;;;;;;40.10;31.08;;;16.00;99.90;;;;;;4992104;28;20039;-64
2022/05/19 02:36:24;;;;;;;35.75;30.17;;;16.00;99.90;;;;;;4991986;28;20104;-64
2022/05/19 02:38:49;;;;;;;38.95;29.95;;;16.00;99.90;;;;;;4993253;28;20034;-64
2022/05/19 02:41:15;;;;;;;41.65;32.28;;;15.90;99.90;;;;;;4991766;28;20704;-64
2022/05/19 02:43:41;;;;;;;35.80;31.50;;;15.90;99.90;;;;;;4993858;28;20045;-64
2022/05/19 02:46:06;;;;;;;37.65;33.47;;;16.00;99.90;;;;;;4992973;28;20133;-64
2022/05/19 02:48:33;;;;;;;42.92;34.97;;;15.90;99.90;;;;;;4995147;28;20052;-64
2022/05/19 02:51:00;;;;;;;44.97;34.63;;;15.90;99.90;;;;;;4992841;28;20060;-64
2022/05/19 02:53:26;;;;;;;38.95;32.92;;;15.90;99.90;;;;;;4993500;28;20057;-64
2022/05/19 02:55:52;;;;;;;43.83;35.08;;;15.90;99.90;;;;;;4992707;28;20092;-64
2022/05/19 02:58:17;;;;;;;44.35;36.70;;;15.90;99.90;;;;;;4996513;28;20485;-64
2022/05/19 03:00:46;;;;;;;45.40;37.80;;;15.90;99.90;;;;;;4994312;28;20046;-64
2022/05/19 03:03:12;;;;;;;47.58;37.22;;;16.00;99.90;;;;;;4991191;28;20677;-64
2022/05/19 03:05:39;;;;;;;44.00;36.58;;;16.00;99.90;;;;;;4994578;28;20033;-64
2022/05/19 03:08:06;;;;;;;44.72;36.33;;;16.00;99.90;;;;;;4991655;28;20121;-64
2022/05/19 03:10:32;;;;;;;50.47;39.28;;;16.00;99.90;;;;;;4992331;28;20046;-64
2022/05/19 03:13:04;;;;;;;50.92;37.50;;;16.00;99.90;;;;;;4991754;28;20038;-64
2022/05/19 03:15:30;;;;;;;45.35;37.60;;;16.00;99.90;;;;;;4993338;28;20833;-64
2022/05/19 03:17:56;;;;;;;45.70;39.38;;;16.00;99.90;;;;;;4992960;28;20120;-64
2022/05/19 03:20:21;;;;;;;49.42;39.42;;;16.00;99.90;;;;;;4991899;28;20100;-65
2022/05/19 03:22:47;;;;;;;46.47;41.05;;;16.00;99.90;;;;;;4994882;28;20519;-64
2022/05/19 03:25:13;;;;;;;48.70;38.05;;;16.00;99.90;;;;;;4993184;28;20038;-64
2022/05/19 03:27:39;;;;;;;53.47;40.97;;;16.00;99.90;;;;;;4993452;28;20081;-64
2022/05/19 03:30:07;;;;;;;49.05;40.08;;;16.00;99.90;;;;;;4992037;28;20053;-64
2022/05/19 03:32:33;;;;;;;49.03;39.88;;;16.00;99.90;;;;;;4991276;28;20053;-64
2022/05/19 03:34:59;;;;;;;51.75;41.63;;;16.00;99.90;;;;;;4992612;28;20042;-64
2022/05/19 03:37:25;;;;;;;51.13;40.45;;;16.00;99.90;;;;;;4990911;28;20038;-64
2022/05/19 03:39:51;;;;;;;54.05;42.08;;;16.00;99.90;;;;;;4993581;28;20048;-64
2022/05/19 03:42:17;;;;;;;49.65;42.22;;;16.00;99.90;;;;;;4994566;28;20042;-64
2022/05/19 03:44:42;;;;;;;52.45;40.88;;;16.00;99.90;;;;;;4994053;28;20057;-64
2022/05/19 03:47:08;;;;;;;47.47;40.45;;;16.00;99.90;;;;;;4995185;28;20407;-64
2022/05/19 03:49:34;;;;;;;51.80;41.88;;;16.00;99.90;;;;;;4995742;28;20041;-64
2022/05/19 03:52:00;;;;;;;53.88;41.50;;;16.00;99.90;;;;;;4997049;28;20074;-64
2022/05/19 03:54:26;;;;;;;51.65;40.33;;;16.00;99.90;;;;;;4997239;28;20053;-64
2022/05/19 03:56:52;;;;;;;48.90;40.75;;;16.00;99.90;;;;;;4993888;28;20045;-65
2022/05/19 03:59:17;;;;;;;50.08;40.75;;;16.00;99.90;;;;;;4999056;28;20046;-64
2022/05/19 04:01:43;;;;;;;54.03;44.25;;;16.00;99.90;;;;;;4997403;28;20106;-64
2022/05/19 04:04:09;;;;;;;49.47;41.85;;;16.10;99.90;;;;;;4992806;28;20084;-65
2022/05/19 04:06:35;;;;;;;48.55;41.67;;;16.10;99.90;;;;;;4995086;28;20144;-64
2022/05/19 04:09:03;;;;;;;49.67;43.38;;;16.10;99.90;;;;;;4997224;28;20042;-64
2022/05/19 04:11:29;;;;;;;47.80;40.40;;;16.10;99.90;;;;;;5012342;28;20054;-64
2022/05/19 04:13:55;;;;;;;55.85;44.72;;;16.10;99.90;;;;;;4995399;28;20053;-64
2022/05/19 04:16:20;;;;;;;49.63;42.88;;;16.10;99.90;;;;;;4995441;28;20056;-64
2022/05/19 04:18:46;;;;;;;49.70;41.53;;;16.20;99.90;;;;;;4993127;28;20075;-64
2022/05/19 04:21:11;;;;;;;46.47;40.03;;;16.20;99.90;;;;;;4995855;28;20054;-64
2022/05/19 04:23:37;;;;;;;49.90;42.75;;;16.20;99.90;;;;;;4994676;28;20037;-64
2022/05/19 04:26:03;;;;;;;51.10;41.45;;;16.20;99.90;;;;;;4992081;28;20042;-64
2022/05/19 04:28:29;;;;;;;49.13;40.83;;;16.30;99.90;;;;;;4993334;28;20038;-64
2022/05/19 04:30:55;;;;;;;51.88;41.47;;;16.30;99.90;;;;;;4992414;28;20049;-64
2022/05/19 04:33:21;;;;;;;47.58;40.75;;;16.40;99.90;;;;;;4993413;28;20047;-64
2022/05/19 04:35:46;;;;;;;48.35;39.65;;;16.50;99.90;;;;;;4996086;28;20041;-64
2022/05/19 04:38:15;;;;;;;49.15;39.83;;;16.50;99.90;;;;;;4992520;28;20892;-64
2022/05/19 04:40:43;;;;;;;46.13;38.78;;;16.60;99.90;;;;;;4991591;28;20081;-64
2022/05/19 04:43:10;;;;;;;49.97;42.75;;;16.70;99.90;;;;;;4991703;28;20081;-64
2022/05/19 04:45:36;;;;;;;44.72;39.10;;;16.90;99.90;;;;;;4994955;28;20053;-64
2022/05/19 04:48:02;;;;;;;49.28;41.03;;;17.00;99.90;;;;;;4991935;28;20531;-64
2022/05/19 04:50:28;;;;;;;47.28;40.13;;;17.00;99.90;;;;;;4994526;28;20041;-64
2022/05/19 04:52:58;;;;;;;48.92;39.08;;;17.10;99.90;;;;;;4993830;28;20034;-64
2022/05/19 04:55:23;;;;;;;47.45;39.15;;;17.20;99.90;;;;;;4993714;28;20159;-64
2022/05/19 04:57:49;;;;;;;50.45;39.40;;;17.20;99.90;;;;;;5010979;28;20038;-64
2022/05/19 05:00:15;;;;;;;41.17;36.42;;;17.30;99.90;;;;;;5005960;28;20511;-64
2022/05/19 05:02:41;;;;;;;43.55;37.67;;;17.30;99.90;;;;;;4993394;28;20103;-64
2022/05/19 05:05:08;;;;;;;41.45;35.67;;;17.40;99.90;;;;;;4995481;28;20125;-64
2022/05/19 05:07:35;;;;;;;42.10;34.70;;;17.40;99.90;;;;;;4997190;28;20053;-64
2022/05/19 05:10:00;;;;;;;40.72;35.72;;;17.60;99.90;;;;;;4991712;28;20054;-64
2022/05/19 05:12:26;;;;;;;39.45;35.25;;;17.60;99.90;;;;;;4996394;28;20522;-64
2022/05/19 05:14:53;;;;;;;36.78;32.08;;;17.70;99.90;;;;;;4995220;28;20497;-64
2022/05/19 05:17:21;;;;;;;36.70;28.80;;;17.80;99.90;;;;;;4996009;28;20046;-64
2022/05/19 05:19:48;;;;;;;33.15;29.55;;;18.00;99.90;;;;;;4999686;28;20037;-64
2022/05/19 05:22:15;;;;;;;38.90;28.70;;;18.30;99.90;;;;;;4995573;28;20046;-64
2022/05/19 05:24:41;;;;;;;35.88;27.42;;;18.50;99.90;;;;;;5000029;28;20782;-64
2022/05/19 05:27:07;;;;;;;34.15;27.17;;;18.50;99.90;;;;;;4991233;28;20053;-64
2022/05/19 05:29:34;;;;;;;32.63;26.05;;;18.60;99.90;;;;;;4997267;28;20045;-64
2022/05/19 05:32:00;;;;;;;28.17;25.27;;;18.70;99.90;;;;;;4992468;28;20050;-64
2022/05/19 05:34:26;;;;;;;27.08;24.13;;;18.70;99.90;;;;;;4995886;28;20042;-64
2022/05/19 05:36:52;;;;;;;24.83;22.33;;;18.90;99.90;;;;;;4994180;28;20160;-64
2022/05/19 05:39:18;;;;;;;25.00;22.00;;;19.10;99.90;;;;;;4979851;28;20077;-64
2022/05/19 05:41:44;;;;;;;24.33;21.10;;;19.30;99.90;;;;;;4997518;28;20050;-64
2022/05/19 05:44:10;;;;;;;22.80;20.33;;;19.60;99.90;;;;;;4996749;28;20627;-64
2022/05/19 05:46:36;;;;;;;22.00;19.73;;;19.80;99.90;;;;;;4995713;28;20070;-64
2022/05/19 05:49:02;;;;;;;23.05;20.75;;;20.00;99.90;;;;;;4998525;28;20154;-64
2022/05/19 05:51:28;;;;;;;22.52;20.05;;;20.10;99.90;;;;;;5012076;28;20119;-65
2022/05/19 05:53:54;;;;;;;30.30;19.55;;;20.20;99.90;;;;;;4991539;28;20121;-65
2022/05/19 05:56:21;;;;;;;27.13;18.23;;;20.30;99.90;;;;;;4991726;28;20085;-64
2022/05/19 05:58:47;;;;;;;21.58;18.98;;;20.40;99.90;;;;;;4994323;28;20045;-64
2022/05/19 06:01:15;;;;;;;23.30;18.70;;;20.50;99.90;;;;;;5016727;28;20151;-64
2022/05/19 06:03:41;;;;;;;20.90;17.52;;;20.60;99.90;;;;;;5015784;28;20081;-65
2022/05/19 06:06:07;;;;;;;22.67;18.92;;;20.70;99.90;;;;;;4997020;28;20085;-64
2022/05/19 06:08:33;;;;;;;21.25;16.40;;;20.70;99.90;;;;;;4994083;28;20515;-64
2022/05/19 06:11:00;;;;;;;19.48;15.15;;;20.80;99.90;;;;;;4994177;28;20057;-64
2022/05/19 06:13:25;;;;;;;18.52;14.00;;;20.70;99.90;;;;;;4996594;28;20038;-64
2022/05/19 06:15:52;;;;;;;16.60;14.07;;;20.90;99.90;;;;;;4996423;28;20041;-64
2022/05/19 06:18:18;;;;;;;15.93;12.93;;;21.10;99.90;;;;;;4995293;28;20087;-64
2022/05/19 06:20:44;;;;;;;18.05;13.15;;;21.30;99.90;;;;;;4999054;28;20045;-64
2022/05/19 06:23:10;;;;;;;18.92;13.10;;;21.40;99.90;;;;;;4992553;28;20084;-64
2022/05/19 06:25:36;;;;;;;14.10;12.68;;;21.40;99.90;;;;;;4996455;28;20100;-64
2022/05/19 06:28:02;;;;;;;14.57;11.70;;;21.50;99.90;;;;;;4994627;28;20042;-64
2022/05/19 06:30:29;;;;;;;13.82;10.20;;;21.60;99.90;;;;;;4995223;28;20040;-65
2022/05/19 06:32:56;;;;;;;14.38;8.23;;;21.90;99.90;;;;;;4994592;28;20066;-64
2022/05/19 06:35:29;;;;;;;9.77;8.32;;;22.30;99.90;;;;;;4994842;28;20030;-65
2022/05/19 06:37:55;;;;;;;8.88;6.88;;;22.50;99.90;;;;;;4990199;28;20046;-64
2022/05/19 06:40:24;;;;;;;13.57;6.32;;;22.70;99.90;;;;;;4997244;28;20058;-64
2022/05/19 06:42:50;;;;;;;12.40;7.82;;;22.60;99.90;;;;;;4995401;28;20049;-64
2022/05/19 06:45:19;;;;;;;11.18;8.48;;;22.50;99.90;;;;;;4996159;28;20129;-64
2022/05/19 06:47:44;;;;;;;13.77;9.95;;;22.40;99.90;;;;;;4993678;28;20045;-64
2022/05/19 06:50:13;;;;;;;13.25;9.40;;;22.30;99.90;;;;;;4993257;28;20049;-64
2022/05/19 06:52:49;;;;;;;18.35;10.13;;;22.20;99.90;;;;;;4993925;28;20053;-64
2022/05/19 06:55:16;;;;;;;16.38;11.10;;;22.10;99.90;;;;;;4992332;28;20096;-65
2022/05/19 06:57:42;;;;;;;13.48;10.45;;;22.00;99.90;;;;;;4995015;28;20042;-64
2022/05/19 07:00:10;;;;;;;13.32;9.68;;;21.90;99.90;;;;;;4992640;28;20075;-64
2022/05/19 07:02:41;;;;;;;11.95;10.13;;;21.80;99.90;;;;;;4996822;28;20073;-64
2022/05/19 07:05:06;;;;;;;11.60;10.23;;;21.70;99.90;;;;;;4992388;28;20453;-64
2022/05/19 07:07:32;;;;;;;18.20;10.85;;;21.60;99.90;;;;;;4996935;28;20050;-64
2022/05/19 07:09:58;;;;;;;17.80;11.73;;;21.60;99.90;;;;;;4990265;28;20830;-65
2022/05/19 07:12:24;;;;;;;15.77;12.65;;;21.50;99.90;;;;;;4993859;28;20038;-65
2022/05/19 07:14:51;;;;;;;19.63;12.55;;;21.50;99.90;;;;;;4991540;28;20057;-64
2022/05/19 07:17:17;;;;;;;17.15;12.30;;;21.40;99.90;;;;;;4996186;28;21027;-64
2022/05/19 07:22:29;;;;;;;19.10;12.73;;;21.30;99.90;;;;;;5018295;28;20042;-65
2022/05/19 07:24:55;;;;;;;18.02;12.98;;;21.20;99.90;;;;;;4997659;28;20034;-64
2022/05/19 07:27:21;;;;;;;18.60;13.57;;;21.10;99.90;;;;;;4999273;28;20049;-64
2022/05/19 07:29:47;;;;;;;16.80;14.23;;;21.00;99.90;;;;;;5001480;28;20071;-64
2022/05/19 07:32:12;;;;;;;14.98;13.45;;;21.00;99.90;;;;;;4994954;28;20046;-64
2022/05/19 07:34:39;;;;;;;14.93;13.32;;;20.90;99.90;;;;;;4998759;28;20039;-64
2022/05/19 07:37:06;;;;;;;15.00;13.38;;;20.80;99.90;;;;;;4995483;28;20056;-64
2022/05/19 07:39:32;;;;;;;27.13;15.38;;;20.60;99.90;;;;;;4994822;28;20056;-64
2022/05/19 07:41:58;;;;;;;16.65;15.05;;;20.50;99.90;;;;;;4997987;28;20052;-64
2022/05/19 07:44:26;;;;;;;16.15;13.93;;;20.30;99.90;;;;;;4997795;28;20045;-64
2022/05/19 07:46:53;;;;;;;18.05;15.32;;;20.30;99.90;;;;;;4997500;28;20044;-64
2022/05/19 07:49:19;;;;;;;16.73;14.80;;;20.30;99.90;;;;;;4995533;28;20041;-64
2022/05/19 07:51:45;;;;;;;18.83;15.77;;;20.20;99.90;;;;;;4997137;28;20443;-64
2022/05/19 07:54:22;;;;;;;23.20;16.70;;;20.20;99.90;;;;;;4985642;28;20034;-64
2022/05/19 07:56:49;;;;;;;19.70;15.30;;;20.20;99.90;;;;;;4998087;28;20115;-64
2022/05/19 07:59:15;;;;;;;17.65;15.75;;;20.20;99.90;;;;;;4995460;28;20045;-64
2022/05/19 08:01:43;;;;;;;17.48;15.77;;;20.10;99.90;;;;;;4998692;28;20042;-64
2022/05/19 08:04:10;;;;;;;21.48;15.98;;;20.20;99.90;;;;;;4997193;28;20058;-64
2022/05/19 08:06:37;;;;;;;20.48;16.58;;;20.10;99.90;;;;;;4994865;28;20061;-64
2022/05/19 08:10:20;;;;;;;19.75;17.63;;;20.10;99.90;;;;;;4995553;28;20046;-64
2022/05/19 08:11:51;;;;;;;16.67;15.00;;;19.90;99.90;;;;;;4996626;28;20049;-64
2022/05/19 08:17:03;;;;;;;19.08;17.08;;;19.80;99.90;;;;;;4993548;28;20144;-64
2022/05/19 08:19:29;;;;;;;21.63;16.65;;;19.80;99.90;;;;;;4999192;28;20130;-64
2022/05/19 08:21:56;;;;;;;18.45;16.00;;;19.70;99.90;;;;;;4993306;28;20073;-64
2022/05/19 08:24:24;;;;;;;22.83;18.23;;;19.70;99.90;;;;;;4996922;28;20397;-64
2022/05/19 08:26:51;;;;;;;19.85;17.60;;;19.70;99.90;;;;;;4979342;28;20075;-64
2022/05/19 08:29:18;;;;;;;19.52;17.48;;;19.70;99.90;;;;;;4998199;28;20125;-64
2022/05/19 08:31:45;;;;;;;18.33;16.60;;;19.80;99.90;;;;;;4995463;28;20120;-64
2022/05/19 08:34:13;;;;;;;19.95;16.48;;;19.80;99.90;;;;;;4998252;28;20145;-64
2022/05/19 08:36:40;;;;;;;19.80;17.70;;;19.90;99.90;;;;;;4999645;28;20046;-64
2022/05/19 08:39:05;;;;;;;20.08;16.15;;;19.80;99.90;;;;;;4995789;28;20072;-64
2022/05/19 08:41:38;;;;;;;16.60;15.00;;;19.80;99.90;;;;;;4995939;28;20493;-64
2022/05/19 08:44:10;;;;;;;15.93;13.48;;;19.90;99.90;;;;;;5015538;28;20636;-64
2022/05/19 08:46:43;;;;;;;19.27;14.15;;;20.00;99.90;;;;;;4997938;28;20042;-64
2022/05/19 08:49:16;;;;;;;15.70;14.10;;;20.20;99.90;;;;;;4996430;28;20074;-64
2022/05/19 08:51:56;;;;;;;16.17;13.88;;;20.30;99.90;;;;;;4995756;28;20066;-64
2022/05/19 08:54:23;;;;;;;16.38;14.68;;;20.30;99.90;;;;;;4993757;28;20481;-64
2022/05/19 08:57:03;;;;;;;19.83;14.50;;;20.30;99.90;;;;;;4992006;28;20214;-64
2022/05/19 08:59:38;;;;;;;15.05;13.55;;;20.40;99.90;;;;;;4995702;28;20045;-64
2022/05/19 09:02:13;;;;;;;14.95;12.40;;;20.50;99.90;;;;;;4996151;28;20081;-64
2022/05/19 09:04:42;;;;;;;12.93;11.50;;;20.70;99.90;;;;;;4995538;28;20053;-64
2022/05/19 09:10:21;;;;;;;12.40;11.05;;;21.00;99.90;;;;;;4998994;28;20038;-64
2022/05/19 09:12:56;;;;;;;12.82;11.02;;;21.10;99.90;;;;;;4995834;28;20048;-64
2022/05/19 09:15:22;;;;;;;12.77;10.63;;;21.10;99.90;;;;;;4995720;28;20044;-64
2022/05/19 09:17:47;;;;;;;12.13;11.02;;;21.20;99.90;;;;;;4995980;28;20045;-64
2022/05/19 09:20:19;;;;;;;14.27;11.40;;;21.20;99.90;;;;;;4994335;28;20050;-64
2022/05/19 09:22:44;;;;;;;14.15;11.48;;;21.30;99.90;;;;;;4996129;28;20053;-64
2022/05/19 09:25:15;;;;;;;13.07;11.77;;;21.30;99.90;;;;;;4994437;28;20038;-64
2022/05/19 09:27:43;;;;;;;12.48;11.18;;;21.30;99.90;;;;;;4999638;28;20050;-64
2022/05/19 09:30:37;;;;;;;11.30;9.35;;;21.40;99.90;;;;;;4995213;28;20042;-64
2022/05/19 09:33:15;;;;;;;11.88;10.40;;;21.60;99.90;;;;;;4995558;28;20073;-64
2022/05/19 09:35:47;;;;;;;10.57;9.48;;;21.80;99.90;;;;;;4996883;28;20040;-64
2022/05/19 09:38:38;;;;;;;10.13;9.02;;;21.90;99.90;;;;;;4996068;28;20038;-64
2022/05/19 09:41:34;;;;;;;10.02;8.68;;;22.00;99.90;;;;;;4994662;28;20050;-64
2022/05/19 09:44:04;;;;;;;9.13;8.18;;;22.30;99.90;;;;;;4989977;28;20062;-64
2022/05/19 09:46:47;;;;;;;10.80;9.57;;;22.40;99.90;;;;;;4996724;28;20508;-64
2022/05/19 09:49:26;;;;;;;9.30;8.30;;;22.60;99.90;;;;;;4997790;28;20469;-64
2022/05/19 09:51:52;;;;;;;11.10;7.88;;;22.70;99.90;;;;;;4995793;28;20038;-64
2022/05/19 09:54:21;;;;;;;8.35;7.45;;;22.60;99.90;;;;;;4995335;28;20056;-64
2022/05/19 09:56:52;;;;;;;9.25;6.80;;;22.80;99.90;;;;;;4996748;28;20038;-64
2022/05/19 09:59:32;;;;;;;7.60;6.68;;;22.80;99.90;;;;;;4997981;28;20042;-64
2022/05/19 10:02:19;;;;;;;11.70;6.90;;;22.90;99.90;;;;;;4990644;28;20073;-64
2022/05/19 10:04:55;;;;;;;9.27;7.07;;;23.00;99.90;;;;;;4994485;28;20399;-64
2022/05/19 10:07:36;;;;;;;10.23;7.60;;;23.10;99.90;;;;;;4994094;28;20054;-64
2022/05/19 10:10:20;;;;;;;7.85;6.43;;;23.20;99.90;;;;;;4995892;28;20073;-64
2022/05/19 10:12:48;;;;;;;8.32;7.32;;;23.00;99.90;;;;;;4990763;28;20046;-64
2022/05/19 10:15:17;;;;;;;10.05;8.10;;;23.00;99.90;;;;;;4995808;28;20046;-64
2022/05/19 10:18:27;;;;;;;8.05;7.13;;;22.90;99.90;;;;;;4995157;28;20432;-64
2022/05/19 10:21:31;;;;;;;11.60;7.68;;;22.90;99.90;;;;;;4972793;28;20038;-64
2022/05/19 10:24:16;;;;;;;11.38;8.52;;;22.70;99.90;;;;;;4930522;28;20046;-64
2022/05/19 10:32:48;;;;;;;8.48;6.65;;;22.80;99.90;;;;;;4993664;28;20473;-66
2022/05/19 10:35:35;;;;;;;9.05;7.35;;;23.00;99.90;;;;;;4992451;28;20044;-65
2022/05/19 10:38:07;;;;;;;8.38;7.18;;;23.00;99.90;;;;;;5004365;28;20045;-64
2022/05/19 10:41:12;;;;;;;12.30;7.03;;;23.10;99.90;;;;;;4990206;28;20080;-64
2022/05/19 10:43:41;;;;;;;9.80;8.43;;;23.30;99.90;;;;;;4983446;28;20463;-64
2022/05/19 10:46:10;;;;;;;8.95;8.02;;;23.50;99.90;;;;;;4993691;28;20050;-64
2022/05/19 10:48:44;;;;;;;10.35;8.65;;;23.50;99.90;;;;;;4990654;28;20053;-64
2022/05/19 10:51:12;;;;;;;10.88;9.77;;;23.60;99.90;;;;;;4994178;28;20053;-64
2022/05/19 10:53:44;;;;;;;10.73;8.82;;;23.60;99.90;;;;;;4997778;28;20050;-64
2022/05/19 10:56:33;;;;;;;9.52;8.52;;;23.70;99.90;;;;;;4986600;28;20041;-64
2022/05/19 10:59:23;;;;;;;13.13;9.52;;;23.90;99.90;;;;;;4997552;28;20050;-64
2022/05/19 11:02:11;;;;;;;9.40;8.40;;;24.10;99.90;;;;;;4996847;28;20404;-64
2022/05/19 11:04:40;;;;;;;11.60;9.13;;;24.10;99.90;;;;;;4996288;28;20061;-64
2022/05/19 11:07:15;;;;;;;12.32;9.85;;;24.10;99.90;;;;;;5000695;28;20056;-64
2022/05/19 11:09:54;;;;;;;11.88;9.50;;;24.10;99.90;;;;;;4993000;28;20083;-64
2022/05/19 11:12:35;;;;;;;11.45;10.25;;;24.40;99.90;;;;;;4993160;28;20034;-64
2022/05/19 11:15:09;;;;;;;10.60;9.50;;;24.80;99.90;;;;;;4992115;28;20112;-64
2022/05/19 11:18:12;;;;;;;10.65;9.07;;;25.00;99.90;;;;;;4996073;28;20061;-64
2022/05/19 11:20:45;;;;;;;12.20;8.75;;;25.20;99.90;;;;;;4997444;28;20152;-64
2022/05/19 11:23:18;;;;;;;9.85;7.95;;;25.30;99.90;;;;;;4994779;28;20042;-64
2022/05/19 11:29:10;;;;;;;8.23;7.17;;;25.60;99.90;;;;;;4993049;28;20062;-65
2022/05/19 11:32:03;;;;;;;7.53;6.13;;;25.90;99.90;;;;;;4997744;28;20108;-64
2022/05/19 11:34:40;;;;;;;8.57;6.05;;;25.90;99.90;;;;;;4997814;28;20804;-64
2022/05/19 11:37:17;;;;;;;7.07;5.30;;;25.80;99.90;;;;;;4995084;28;20077;-64
2022/05/19 11:39:52;;;;;;;4.78;3.70;;;25.90;99.90;;;;;;4995211;28;20081;-64
2022/05/19 11:42:28;;;;;;;3.85;3.08;;;25.90;99.90;;;;;;4996982;28;20128;-65
2022/05/19 11:44:54;;;;;;;3.97;2.95;;;26.20;99.90;;;;;;4997757;28;20044;-65
2022/05/19 11:56:08;;;;;;;6.00;2.92;;;26.40;99.90;;;;;;4998275;28;20054;-65
2022/05/19 11:58:36;;;;;;;4.35;2.67;;;26.40;99.90;;;;;;4998531;28;20046;-64
2022/05/19 12:01:04;;;;;;;5.50;2.55;;;26.30;99.90;;;;;;4997099;28;20054;-64
2022/05/19 12:03:59;;;;;;;4.38;2.67;;;26.30;99.90;;;;;;4999034;28;20052;-64
2022/05/19 12:06:31;;;;;;;6.03;2.50;;;26.30;99.90;;;;;;4997748;28;20045;-65
2022/05/19 12:09:19;;;;;;;5.80;2.33;;;26.30;99.90;;;;;;4993562;28;20389;-64
2022/05/19 12:11:45;;;;;;;2.33;1.83;;;26.30;99.70;;;;;;4995487;28;20046;-65
2022/05/19 12:14:11;;;;;;;6.38;2.05;;;26.30;99.30;;;;;;4996794;28;20060;-64
2022/05/19 12:17:06;;;;;;;8.45;2.05;;;26.20;99.20;;;;;;4984810;28;20058;-65
2022/05/19 12:19:52;;;;;;;5.65;1.75;;;26.10;98.70;;;;;;4998328;28;20370;-65
2022/05/19 12:22:28;;;;;;;2.90;1.83;;;26.00;98.40;;;;;;4997052;28;20074;-65
2022/05/19 12:24:55;;;;;;;4.07;1.42;;;26.00;97.70;;;;;;4997931;28;20041;-65
2022/05/19 12:27:24;;;;;;;2.08;1.30;;;25.80;96.90;;;;;;4997383;28;20045;-65
2022/05/19 12:29:57;;;;;;;7.13;1.48;;;25.70;97.00;;;;;;4995510;28;20038;-65
2022/05/19 12:32:29;;;;;;;2.30;1.45;;;25.70;97.60;;;;;;5011912;28;20172;-64
2022/05/19 12:35:02;;;;;;;2.67;1.70;;;25.50;98.20;;;;;;5000099;22;20465;-80
2022/05/19 12:37:43;;;;;;;15.48;2.33;;;25.30;98.40;;;;;;4968038;28;21667;-78
2022/05/19 12:40:48;;;;;;;5.53;2.10;;;25.20;99.00;;;;;;4950913;28;20050;-86
2022/05/19 12:43:15;;;;;;;1.80;1.30;;;25.00;99.50;;;;;;4962337;28;20061;-81
2022/05/19 12:46:01;;;;;;;6.25;1.45;;;25.00;99.90;;;;;;4962115;28;20510;-79
2022/05/19 12:48:33;;;;;;;1.92;1.17;;;24.80;99.90;;;;;;4962134;28;20038;-81
2022/05/19 12:51:16;;;;;;;3.90;1.70;;;24.80;99.90;;;;;;4966440;28;20069;-82
2022/05/19 12:54:01;;;;;;;3.95;1.30;;;24.70;99.90;;;;;;4958451;28;20062;-80
2022/05/19 12:56:43;;;;;;;10.98;1.88;;;24.50;99.90;;;;;;4966680;28;20046;-79
2022/05/19 12:59:42;;;;;;;9.00;1.90;;;24.40;99.90;;;;;;4964057;28;20061;-83
2022/05/19 13:02:30;;;;;;;8.70;1.70;;;24.30;99.90;;;;;;4976612;28;20109;-83
2022/05/19 13:05:04;;;;;;;4.82;1.75;;;24.10;99.90;;;;;;5009471;28;20130;-80
2022/05/19 13:08:13;;;;;;;2.50;1.70;;;23.80;99.90;;;;;;4997019;28;20058;-82
2022/05/19 13:10:50;;;;;;;11.40;3.50;;;23.60;99.90;;;;;;4960926;28;20050;-81
2022/05/19 13:13:24;;;;;;;9.82;3.55;;;23.20;99.90;;;;;;4982294;28;20047;-80
2022/05/19 13:16:04;;;;;;;4.77;3.70;;;22.90;99.90;;;;;;4965886;28;20067;-81
2022/05/19 13:18:36;;;;;;;9.98;4.22;;;22.50;99.90;;;;;;4984516;28;20309;-81